sensor_id;sensor_type;location;lat;lon;timestamp;P1;durP1;ratioP1;P2;durP2;ratioP2
20988;SDS011;10653;47.052;15.410;2022-10-16T00:01:48;55.70;;;42.13;;
20988;SDS011;10653;47.052;15.410;2022-10-16T00:04:14;52.97;;;39.20;;
20988;SDS011;10653;47.052;15.410;2022-10-16T00:06:40;51.53;;;39.57;;
20988;SDS011;10653;47.052;15.410;2022-10-16T00:09:06;49.43;;;39.60;;
20988;SDS011;10653;47.052;15.410;2022-10-16T00:11:33;47.30;;;37.10;;
20988;SDS011;10653;47.052;15.410;2022-10-16T00:14:02;49.60;;;39.43;;
20988;SDS011;10653;47.052;15.410;2022-10-16T00:16:29;51.30;;;40.27;;
20988;SDS011;10653;47.052;15.410;2022-10-16T00:18:55;50.97;;;40.50;;
20988;SDS011;10653;47.052;15.410;2022-10-16T00:21:22;46.40;;;36.80;;
20988;SDS011;10653;47.052;15.410;2022-10-16T00:24:02;47.23;;;38.40;;
20988;SDS011;10653;47.052;15.410;2022-10-16T00:26:30;50.30;;;39.50;;
20988;SDS011;10653;47.052;15.410;2022-10-16T00:28:56;47.87;;;38.97;;
20988;SDS011;10653;47.052;15.410;2022-10-16T00:31:22;51.53;;;39.87;;
20988;SDS011;10653;47.052;15.410;2022-10-16T00:33:48;53.07;;;38.67;;
20988;SDS011;10653;47.052;15.410;2022-10-16T00:36:15;47.80;;;37.97;;
20988;SDS011;10653;47.052;15.410;2022-10-16T00:38:42;49.80;;;38.80;;
20988;SDS011;10653;47.052;15.410;2022-10-16T00:41:10;54.77;;;40.43;;
20988;SDS011;10653;47.052;15.410;2022-10-16T00:46:25;49.17;;;37.60;;
20988;SDS011;10653;47.052;15.410;2022-10-16T00:48:57;44.60;;;38.87;;
20988;SDS011;10653;47.052;15.410;2022-10-16T00:51:25;44.63;;;36.40;;
20988;SDS011;10653;47.052;15.410;2022-10-16T00:53:52;51.67;;;38.47;;
20988;SDS011;10653;47.052;15.410;2022-10-16T00:56:18;49.03;;;38.77;;
20988;SDS011;10653;47.052;15.410;2022-10-16T00:58:44;52.20;;;40.47;;
20988;SDS011;10653;47.052;15.410;2022-10-16T01:01:10;49.17;;;39.40;;
20988;SDS011;10653;47.052;15.410;2022-10-16T01:03:36;53.00;;;41.37;;
20988;SDS011;10653;47.052;15.410;2022-10-16T01:11:44;48.87;;;40.37;;
20988;SDS011;10653;47.052;15.410;2022-10-16T01:14:32;48.20;;;40.20;;
20988;SDS011;10653;47.052;15.410;2022-10-16T01:22:07;47.57;;;38.57;;
20988;SDS011;10653;47.052;15.410;2022-10-16T01:24:39;50.40;;;39.67;;
20988;SDS011;10653;47.052;15.410;2022-10-16T01:27:22;50.37;;;39.20;;
20988;SDS011;10653;47.052;15.410;2022-10-16T01:29:54;53.60;;;40.00;;
20988;SDS011;10653;47.052;15.410;2022-10-16T01:34:51;48.23;;;39.53;;
20988;SDS011;10653;47.052;15.410;2022-10-16T01:37:23;56.17;;;40.10;;
20988;SDS011;10653;47.052;15.410;2022-10-16T01:39:50;48.30;;;39.30;;
20988;SDS011;10653;47.052;15.410;2022-10-16T01:42:23;45.93;;;39.27;;
20988;SDS011;10653;47.052;15.410;2022-10-16T01:44:50;51.53;;;39.97;;
20988;SDS011;10653;47.052;15.410;2022-10-16T01:47:16;50.70;;;41.50;;
20988;SDS011;10653;47.052;15.410;2022-10-16T01:49:43;48.93;;;39.67;;
20988;SDS011;10653;47.052;15.410;2022-10-16T01:52:11;50.87;;;40.30;;
20988;SDS011;10653;47.052;15.410;2022-10-16T01:54:39;51.63;;;40.17;;
20988;SDS011;10653;47.052;15.410;2022-10-16T01:57:06;51.23;;;42.03;;
20988;SDS011;10653;47.052;15.410;2022-10-16T01:59:34;47.33;;;38.90;;
20988;SDS011;10653;47.052;15.410;2022-10-16T02:02:01;48.13;;;38.60;;
20988;SDS011;10653;47.052;15.410;2022-10-16T02:04:34;50.30;;;41.27;;
20988;SDS011;10653;47.052;15.410;2022-10-16T02:07:02;50.60;;;38.83;;
20988;SDS011;10653;47.052;15.410;2022-10-16T02:09:29;44.50;;;38.73;;
20988;SDS011;10653;47.052;15.410;2022-10-16T02:11:56;45.47;;;38.00;;
20988;SDS011;10653;47.052;15.410;2022-10-16T02:14:23;46.47;;;38.00;;
20988;SDS011;10653;47.052;15.410;2022-10-16T02:16:50;46.43;;;36.77;;
20988;SDS011;10653;47.052;15.410;2022-10-16T02:19:16;43.47;;;36.40;;
20988;SDS011;10653;47.052;15.410;2022-10-16T02:21:51;45.23;;;36.97;;
20988;SDS011;10653;47.052;15.410;2022-10-16T02:24:23;43.13;;;35.57;;
20988;SDS011;10653;47.052;15.410;2022-10-16T02:27:01;42.70;;;36.80;;
20988;SDS011;10653;47.052;15.410;2022-10-16T02:29:29;47.00;;;37.33;;
20988;SDS011;10653;47.052;15.410;2022-10-16T02:31:58;46.77;;;40.47;;
20988;SDS011;10653;47.052;15.410;2022-10-16T02:34:26;43.10;;;35.67;;
20988;SDS011;10653;47.052;15.410;2022-10-16T02:36:53;43.33;;;36.10;;
20988;SDS011;10653;47.052;15.410;2022-10-16T02:39:20;45.90;;;36.43;;
20988;SDS011;10653;47.052;15.410;2022-10-16T02:41:46;43.40;;;37.33;;
20988;SDS011;10653;47.052;15.410;2022-10-16T02:44:13;45.00;;;37.30;;
20988;SDS011;10653;47.052;15.410;2022-10-16T02:46:39;44.00;;;36.03;;
20988;SDS011;10653;47.052;15.410;2022-10-16T02:49:05;43.50;;;36.80;;
20988;SDS011;10653;47.052;15.410;2022-10-16T02:51:31;46.97;;;36.97;;
20988;SDS011;10653;47.052;15.410;2022-10-16T02:53:57;44.50;;;35.50;;
20988;SDS011;10653;47.052;15.410;2022-10-16T02:56:23;42.33;;;36.93;;
20988;SDS011;10653;47.052;15.410;2022-10-16T02:58:49;41.23;;;36.10;;
20988;SDS011;10653;47.052;15.410;2022-10-16T03:01:15;45.73;;;38.37;;
20988;SDS011;10653;47.052;15.410;2022-10-16T03:03:41;47.87;;;38.90;;
20988;SDS011;10653;47.052;15.410;2022-10-16T03:06:07;45.70;;;39.63;;
20988;SDS011;10653;47.052;15.410;2022-10-16T03:08:33;48.10;;;39.00;;
20988;SDS011;10653;47.052;15.410;2022-10-16T03:10:59;45.30;;;34.33;;
20988;SDS011;10653;47.052;15.410;2022-10-16T03:13:25;52.13;;;37.80;;
20988;SDS011;10653;47.052;15.410;2022-10-16T03:15:51;49.23;;;37.50;;
20988;SDS011;10653;47.052;15.410;2022-10-16T03:18:17;47.33;;;38.20;;
20988;SDS011;10653;47.052;15.410;2022-10-16T03:20:43;43.13;;;37.47;;
20988;SDS011;10653;47.052;15.410;2022-10-16T03:23:10;46.33;;;37.80;;
20988;SDS011;10653;47.052;15.410;2022-10-16T03:25:36;49.33;;;38.63;;
20988;SDS011;10653;47.052;15.410;2022-10-16T03:28:02;44.50;;;37.53;;
20988;SDS011;10653;47.052;15.410;2022-10-16T03:30:28;55.60;;;42.90;;
20988;SDS011;10653;47.052;15.410;2022-10-16T03:32:54;57.43;;;43.20;;
20988;SDS011;10653;47.052;15.410;2022-10-16T03:35:20;58.53;;;43.77;;
20988;SDS011;10653;47.052;15.410;2022-10-16T03:37:46;56.57;;;41.63;;
20988;SDS011;10653;47.052;15.410;2022-10-16T03:40:12;54.33;;;41.17;;
20988;SDS011;10653;47.052;15.410;2022-10-16T03:42:39;53.83;;;42.10;;
20988;SDS011;10653;47.052;15.410;2022-10-16T03:45:05;59.67;;;42.47;;
20988;SDS011;10653;47.052;15.410;2022-10-16T03:47:31;63.00;;;43.53;;
20988;SDS011;10653;47.052;15.410;2022-10-16T03:49:58;59.90;;;42.53;;
20988;SDS011;10653;47.052;15.410;2022-10-16T03:52:24;60.70;;;43.20;;
20988;SDS011;10653;47.052;15.410;2022-10-16T03:54:51;60.67;;;43.70;;
20988;SDS011;10653;47.052;15.410;2022-10-16T03:57:17;56.00;;;43.87;;
20988;SDS011;10653;47.052;15.410;2022-10-16T03:59:43;56.03;;;43.73;;
20988;SDS011;10653;47.052;15.410;2022-10-16T04:02:09;58.80;;;42.77;;
20988;SDS011;10653;47.052;15.410;2022-10-16T04:04:35;60.67;;;44.50;;
20988;SDS011;10653;47.052;15.410;2022-10-16T04:07:01;60.37;;;43.80;;
20988;SDS011;10653;47.052;15.410;2022-10-16T04:09:27;65.00;;;45.30;;
20988;SDS011;10653;47.052;15.410;2022-10-16T04:11:53;68.33;;;45.73;;
20988;SDS011;10653;47.052;15.410;2022-10-16T04:14:19;68.17;;;46.20;;
20988;SDS011;10653;47.052;15.410;2022-10-16T04:16:45;56.07;;;43.40;;
20988;SDS011;10653;47.052;15.410;2022-10-16T04:19:11;63.87;;;45.50;;
20988;SDS011;10653;47.052;15.410;2022-10-16T04:21:38;58.93;;;44.33;;
20988;SDS011;10653;47.052;15.410;2022-10-16T04:24:04;63.83;;;45.20;;
20988;SDS011;10653;47.052;15.410;2022-10-16T04:26:30;76.03;;;45.03;;
20988;SDS011;10653;47.052;15.410;2022-10-16T04:28:56;60.60;;;47.30;;
20988;SDS011;10653;47.052;15.410;2022-10-16T04:31:22;58.97;;;42.50;;
20988;SDS011;10653;47.052;15.410;2022-10-16T04:33:48;55.50;;;42.07;;
20988;SDS011;10653;47.052;15.410;2022-10-16T04:36:14;60.93;;;43.60;;
20988;SDS011;10653;47.052;15.410;2022-10-16T04:38:40;62.43;;;46.17;;
20988;SDS011;10653;47.052;15.410;2022-10-16T04:41:06;61.80;;;44.97;;
20988;SDS011;10653;47.052;15.410;2022-10-16T04:43:33;72.63;;;48.77;;
20988;SDS011;10653;47.052;15.410;2022-10-16T04:45:59;72.90;;;46.33;;
20988;SDS011;10653;47.052;15.410;2022-10-16T04:48:25;63.50;;;46.40;;
20988;SDS011;10653;47.052;15.410;2022-10-16T04:50:51;87.97;;;49.57;;
20988;SDS011;10653;47.052;15.410;2022-10-16T04:53:17;63.30;;;44.30;;
20988;SDS011;10653;47.052;15.410;2022-10-16T04:55:43;62.13;;;46.60;;
20988;SDS011;10653;47.052;15.410;2022-10-16T04:58:09;73.83;;;48.07;;
20988;SDS011;10653;47.052;15.410;2022-10-16T05:00:35;77.07;;;46.67;;
20988;SDS011;10653;47.052;15.410;2022-10-16T05:03:03;60.43;;;44.03;;
20988;SDS011;10653;47.052;15.410;2022-10-16T05:05:32;62.13;;;45.70;;
20988;SDS011;10653;47.052;15.410;2022-10-16T05:07:58;63.70;;;45.37;;
20988;SDS011;10653;47.052;15.410;2022-10-16T05:10:24;65.20;;;45.60;;
20988;SDS011;10653;47.052;15.410;2022-10-16T05:12:50;76.93;;;48.80;;
20988;SDS011;10653;47.052;15.410;2022-10-16T05:15:17;62.80;;;45.53;;
20988;SDS011;10653;47.052;15.410;2022-10-16T05:17:43;52.23;;;42.87;;
20988;SDS011;10653;47.052;15.410;2022-10-16T05:20:09;57.80;;;45.67;;
20988;SDS011;10653;47.052;15.410;2022-10-16T05:22:35;56.13;;;42.00;;
20988;SDS011;10653;47.052;15.410;2022-10-16T05:25:01;58.10;;;43.40;;
20988;SDS011;10653;47.052;15.410;2022-10-16T05:27:27;55.40;;;44.67;;
20988;SDS011;10653;47.052;15.410;2022-10-16T05:29:53;54.10;;;42.60;;
20988;SDS011;10653;47.052;15.410;2022-10-16T05:32:19;54.70;;;44.63;;
20988;SDS011;10653;47.052;15.410;2022-10-16T05:34:45;50.50;;;42.30;;
20988;SDS011;10653;47.052;15.410;2022-10-16T05:37:11;49.33;;;39.77;;
20988;SDS011;10653;47.052;15.410;2022-10-16T05:39:38;45.27;;;37.57;;
20988;SDS011;10653;47.052;15.410;2022-10-16T05:42:04;55.47;;;39.30;;
20988;SDS011;10653;47.052;15.410;2022-10-16T05:44:30;43.40;;;36.57;;
20988;SDS011;10653;47.052;15.410;2022-10-16T05:46:56;48.80;;;38.53;;
20988;SDS011;10653;47.052;15.410;2022-10-16T05:49:22;42.63;;;37.93;;
20988;SDS011;10653;47.052;15.410;2022-10-16T05:51:48;51.40;;;38.27;;
20988;SDS011;10653;47.052;15.410;2022-10-16T05:54:14;43.37;;;36.30;;
20988;SDS011;10653;47.052;15.410;2022-10-16T05:56:40;44.50;;;38.27;;
20988;SDS011;10653;47.052;15.410;2022-10-16T05:59:06;44.20;;;36.20;;
20988;SDS011;10653;47.052;15.410;2022-10-16T06:01:33;48.23;;;36.00;;
20988;SDS011;10653;47.052;15.410;2022-10-16T06:04:00;48.67;;;38.10;;
20988;SDS011;10653;47.052;15.410;2022-10-16T06:06:26;45.37;;;35.57;;
20988;SDS011;10653;47.052;15.410;2022-10-16T06:08:53;45.40;;;38.90;;
20988;SDS011;10653;47.052;15.410;2022-10-16T06:11:23;65.03;;;40.70;;
20988;SDS011;10653;47.052;15.410;2022-10-16T06:13:50;45.53;;;38.07;;
20988;SDS011;10653;47.052;15.410;2022-10-16T06:16:17;51.37;;;38.40;;
20988;SDS011;10653;47.052;15.410;2022-10-16T06:18:43;48.40;;;38.23;;
20988;SDS011;10653;47.052;15.410;2022-10-16T06:21:13;42.77;;;37.27;;
20988;SDS011;10653;47.052;15.410;2022-10-16T06:23:40;51.70;;;41.03;;
20988;SDS011;10653;47.052;15.410;2022-10-16T06:26:07;50.00;;;40.13;;
20988;SDS011;10653;47.052;15.410;2022-10-16T06:28:33;48.53;;;40.27;;
20988;SDS011;10653;47.052;15.410;2022-10-16T06:30:59;53.17;;;39.47;;
20988;SDS011;10653;47.052;15.410;2022-10-16T06:33:25;44.97;;;38.50;;
20988;SDS011;10653;47.052;15.410;2022-10-16T06:35:51;53.97;;;42.37;;
20988;SDS011;10653;47.052;15.410;2022-10-16T06:38:17;57.37;;;41.80;;
20988;SDS011;10653;47.052;15.410;2022-10-16T06:40:43;54.27;;;39.97;;
20988;SDS011;10653;47.052;15.410;2022-10-16T06:43:09;57.83;;;41.17;;
20988;SDS011;10653;47.052;15.410;2022-10-16T06:45:35;59.10;;;41.30;;
20988;SDS011;10653;47.052;15.410;2022-10-16T06:48:01;54.07;;;42.30;;
20988;SDS011;10653;47.052;15.410;2022-10-16T06:50:27;51.70;;;39.97;;
20988;SDS011;10653;47.052;15.410;2022-10-16T06:52:53;57.03;;;39.73;;
20988;SDS011;10653;47.052;15.410;2022-10-16T06:55:19;49.03;;;38.40;;
20988;SDS011;10653;47.052;15.410;2022-10-16T06:57:46;55.87;;;40.53;;
20988;SDS011;10653;47.052;15.410;2022-10-16T07:00:13;55.57;;;40.40;;
20988;SDS011;10653;47.052;15.410;2022-10-16T07:02:39;50.00;;;40.70;;
20988;SDS011;10653;47.052;15.410;2022-10-16T07:05:05;47.60;;;37.80;;
20988;SDS011;10653;47.052;15.410;2022-10-16T07:07:31;52.10;;;39.10;;
20988;SDS011;10653;47.052;15.410;2022-10-16T07:09:57;50.20;;;37.47;;
20988;SDS011;10653;47.052;15.410;2022-10-16T07:12:23;46.33;;;37.70;;
20988;SDS011;10653;47.052;15.410;2022-10-16T07:14:49;50.63;;;39.30;;
20988;SDS011;10653;47.052;15.410;2022-10-16T07:17:17;55.80;;;36.97;;
20988;SDS011;10653;47.052;15.410;2022-10-16T07:19:43;48.20;;;36.63;;
20988;SDS011;10653;47.052;15.410;2022-10-16T07:22:09;49.63;;;39.87;;
20988;SDS011;10653;47.052;15.410;2022-10-16T07:24:35;53.73;;;37.97;;
20988;SDS011;10653;47.052;15.410;2022-10-16T07:27:01;53.50;;;38.67;;
20988;SDS011;10653;47.052;15.410;2022-10-16T07:29:27;46.33;;;40.07;;
20988;SDS011;10653;47.052;15.410;2022-10-16T07:31:53;45.63;;;36.93;;
20988;SDS011;10653;47.052;15.410;2022-10-16T07:34:21;51.13;;;37.20;;
20988;SDS011;10653;47.052;15.410;2022-10-16T07:36:48;47.83;;;38.27;;
20988;SDS011;10653;47.052;15.410;2022-10-16T07:39:14;44.23;;;36.90;;
20988;SDS011;10653;47.052;15.410;2022-10-16T07:41:40;49.07;;;37.10;;
20988;SDS011;10653;47.052;15.410;2022-10-16T07:44:06;41.63;;;33.63;;
20988;SDS011;10653;47.052;15.410;2022-10-16T07:46:32;39.30;;;32.30;;
20988;SDS011;10653;47.052;15.410;2022-10-16T07:49:00;39.60;;;33.77;;
20988;SDS011;10653;47.052;15.410;2022-10-16T07:51:27;44.30;;;34.83;;
20988;SDS011;10653;47.052;15.410;2022-10-16T07:53:53;45.43;;;34.77;;
20988;SDS011;10653;47.052;15.410;2022-10-16T07:56:20;41.80;;;34.47;;
20988;SDS011;10653;47.052;15.410;2022-10-16T07:58:46;39.97;;;33.97;;
20988;SDS011;10653;47.052;15.410;2022-10-16T08:01:14;45.37;;;35.10;;
20988;SDS011;10653;47.052;15.410;2022-10-16T08:03:41;44.70;;;35.00;;
20988;SDS011;10653;47.052;15.410;2022-10-16T08:06:07;46.17;;;36.20;;
20988;SDS011;10653;47.052;15.410;2022-10-16T08:08:33;44.50;;;36.53;;
20988;SDS011;10653;47.052;15.410;2022-10-16T08:11:00;43.30;;;35.40;;
20988;SDS011;10653;47.052;15.410;2022-10-16T08:13:28;46.17;;;35.23;;
20988;SDS011;10653;47.052;15.410;2022-10-16T08:15:54;39.60;;;33.10;;
20988;SDS011;10653;47.052;15.410;2022-10-16T08:18:20;44.90;;;36.77;;
20988;SDS011;10653;47.052;15.410;2022-10-16T08:20:46;42.20;;;35.50;;
20988;SDS011;10653;47.052;15.410;2022-10-16T08:23:12;42.80;;;35.10;;
20988;SDS011;10653;47.052;15.410;2022-10-16T08:25:39;40.87;;;34.67;;
20988;SDS011;10653;47.052;15.410;2022-10-16T08:28:06;39.90;;;34.20;;
20988;SDS011;10653;47.052;15.410;2022-10-16T08:30:33;39.97;;;33.77;;
20988;SDS011;10653;47.052;15.410;2022-10-16T08:32:59;42.87;;;33.80;;
20988;SDS011;10653;47.052;15.410;2022-10-16T08:35:25;41.73;;;34.60;;
20988;SDS011;10653;47.052;15.410;2022-10-16T08:37:51;41.80;;;33.10;;
20988;SDS011;10653;47.052;15.410;2022-10-16T08:40:23;45.17;;;35.80;;
20988;SDS011;10653;47.052;15.410;2022-10-16T08:47:49;43.43;;;33.60;;
20988;SDS011;10653;47.052;15.410;2022-10-16T08:50:25;43.10;;;35.23;;
20988;SDS011;10653;47.052;15.410;2022-10-16T08:52:52;43.63;;;34.77;;
20988;SDS011;10653;47.052;15.410;2022-10-16T08:55:24;48.63;;;33.90;;
20988;SDS011;10653;47.052;15.410;2022-10-16T08:57:54;38.00;;;30.13;;
20988;SDS011;10653;47.052;15.410;2022-10-16T09:00:20;38.50;;;29.30;;
20988;SDS011;10653;47.052;15.410;2022-10-16T09:05:52;37.70;;;30.13;;
20988;SDS011;10653;47.052;15.410;2022-10-16T09:10:59;36.47;;;28.50;;
20988;SDS011;10653;47.052;15.410;2022-10-16T09:13:43;33.37;;;25.93;;
20988;SDS011;10653;47.052;15.410;2022-10-16T09:18:45;33.93;;;26.53;;
20988;SDS011;10653;47.052;15.410;2022-10-16T09:21:15;38.70;;;27.83;;
20988;SDS011;10653;47.052;15.410;2022-10-16T09:23:43;32.70;;;26.40;;
20988;SDS011;10653;47.052;15.410;2022-10-16T09:26:11;35.97;;;27.60;;
20988;SDS011;10653;47.052;15.410;2022-10-16T09:28:37;37.00;;;28.77;;
20988;SDS011;10653;47.052;15.410;2022-10-16T09:31:03;31.13;;;23.80;;
20988;SDS011;10653;47.052;15.410;2022-10-16T09:33:33;32.90;;;24.73;;
20988;SDS011;10653;47.052;15.410;2022-10-16T09:36:00;35.40;;;25.87;;
20988;SDS011;10653;47.052;15.410;2022-10-16T09:38:29;33.57;;;25.10;;
20988;SDS011;10653;47.052;15.410;2022-10-16T09:40:56;30.43;;;24.70;;
20988;SDS011;10653;47.052;15.410;2022-10-16T09:46:06;32.33;;;23.70;;
20988;SDS011;10653;47.052;15.410;2022-10-16T09:48:43;29.87;;;23.63;;
20988;SDS011;10653;47.052;15.410;2022-10-16T09:51:20;28.63;;;24.83;;
20988;SDS011;10653;47.052;15.410;2022-10-16T09:53:47;27.77;;;24.03;;
20988;SDS011;10653;47.052;15.410;2022-10-16T09:58:52;27.53;;;24.23;;
20988;SDS011;10653;47.052;15.410;2022-10-16T10:01:18;28.97;;;24.10;;
20988;SDS011;10653;47.052;15.410;2022-10-16T10:03:45;27.97;;;22.80;;
20988;SDS011;10653;47.052;15.410;2022-10-16T10:06:20;24.87;;;21.23;;
20988;SDS011;10653;47.052;15.410;2022-10-16T10:08:57;28.30;;;23.70;;
20988;SDS011;10653;47.052;15.410;2022-10-16T10:16:40;25.83;;;23.20;;
20988;SDS011;10653;47.052;15.410;2022-10-16T10:19:12;24.83;;;21.17;;
20988;SDS011;10653;47.052;15.410;2022-10-16T10:21:39;23.93;;;21.20;;
20988;SDS011;10653;47.052;15.410;2022-10-16T10:24:08;24.70;;;22.17;;
20988;SDS011;10653;47.052;15.410;2022-10-16T10:26:35;25.00;;;19.77;;
20988;SDS011;10653;47.052;15.410;2022-10-16T10:29:06;18.97;;;16.83;;
20988;SDS011;10653;47.052;15.410;2022-10-16T10:31:39;24.47;;;20.43;;
20988;SDS011;10653;47.052;15.410;2022-10-16T10:36:40;19.40;;;17.33;;
20988;SDS011;10653;47.052;15.410;2022-10-16T10:39:08;24.03;;;19.33;;
20988;SDS011;10653;47.052;15.410;2022-10-16T10:44:07;18.17;;;16.17;;
20988;SDS011;10653;47.052;15.410;2022-10-16T10:46:36;21.17;;;19.07;;
20988;SDS011;10653;47.052;15.410;2022-10-16T11:02:50;19.67;;;17.80;;
20988;SDS011;10653;47.052;15.410;2022-10-16T11:07:52;17.70;;;16.00;;
20988;SDS011;10653;47.052;15.410;2022-10-16T11:10:20;20.87;;;18.97;;
20988;SDS011;10653;47.052;15.410;2022-10-16T11:12:47;19.90;;;18.00;;
20988;SDS011;10653;47.052;15.410;2022-10-16T11:15:15;19.27;;;17.40;;
20988;SDS011;10653;47.052;15.410;2022-10-16T11:17:52;20.77;;;18.97;;
20988;SDS011;10653;47.052;15.410;2022-10-16T11:20:23;20.20;;;17.70;;
20988;SDS011;10653;47.052;15.410;2022-10-16T11:22:57;20.83;;;18.83;;
20988;SDS011;10653;47.052;15.410;2022-10-16T11:25:27;19.33;;;17.63;;
20988;SDS011;10653;47.052;15.410;2022-10-16T11:28:11;20.13;;;18.23;;
20988;SDS011;10653;47.052;15.410;2022-10-16T11:30:49;20.13;;;18.30;;
20988;SDS011;10653;47.052;15.410;2022-10-16T11:40:50;19.47;;;17.67;;
20988;SDS011;10653;47.052;15.410;2022-10-16T11:43:37;18.40;;;16.70;;
20988;SDS011;10653;47.052;15.410;2022-10-16T11:46:05;18.03;;;16.33;;
20988;SDS011;10653;47.052;15.410;2022-10-16T11:48:51;19.17;;;17.33;;
20988;SDS011;10653;47.052;15.410;2022-10-16T11:51:38;20.00;;;18.10;;
20988;SDS011;10653;47.052;15.410;2022-10-16T11:56:40;18.33;;;16.53;;
20988;SDS011;10653;47.052;15.410;2022-10-16T11:59:08;18.90;;;16.20;;
20988;SDS011;10653;47.052;15.410;2022-10-16T12:01:49;20.00;;;18.07;;
20988;SDS011;10653;47.052;15.410;2022-10-16T12:06:55;18.60;;;16.80;;
20988;SDS011;10653;47.052;15.410;2022-10-16T12:09:34;19.70;;;17.70;;
20988;SDS011;10653;47.052;15.410;2022-10-16T12:12:02;17.83;;;16.23;;
20988;SDS011;10653;47.052;15.410;2022-10-16T12:14:36;16.60;;;15.10;;
20988;SDS011;10653;47.052;15.410;2022-10-16T12:17:24;17.20;;;15.67;;
20988;SDS011;10653;47.052;15.410;2022-10-16T12:19:58;16.50;;;15.20;;
20988;SDS011;10653;47.052;15.410;2022-10-16T12:22:25;17.70;;;16.20;;
20988;SDS011;10653;47.052;15.410;2022-10-16T12:24:53;15.63;;;14.33;;
20988;SDS011;10653;47.052;15.410;2022-10-16T12:29:54;15.27;;;14.07;;
20988;SDS011;10653;47.052;15.410;2022-10-16T12:34:49;14.93;;;13.63;;
20988;SDS011;10653;47.052;15.410;2022-10-16T12:37:32;15.03;;;13.83;;
20988;SDS011;10653;47.052;15.410;2022-10-16T12:39:58;15.03;;;13.73;;
20988;SDS011;10653;47.052;15.410;2022-10-16T12:44:58;14.40;;;13.20;;
20988;SDS011;10653;47.052;15.410;2022-10-16T12:49:59;13.07;;;11.97;;
20988;SDS011;10653;47.052;15.410;2022-10-16T12:52:27;15.20;;;13.90;;
20988;SDS011;10653;47.052;15.410;2022-10-16T12:54:57;15.47;;;13.80;;
20988;SDS011;10653;47.052;15.410;2022-10-16T13:07:24;16.90;;;15.60;;
20988;SDS011;10653;47.052;15.410;2022-10-16T13:09:58;15.40;;;14.20;;
20988;SDS011;10653;47.052;15.410;2022-10-16T13:12:33;14.43;;;13.13;;
20988;SDS011;10653;47.052;15.410;2022-10-16T13:17:39;16.23;;;14.83;;
20988;SDS011;10653;47.052;15.410;2022-10-16T13:25:18;17.17;;;15.67;;
20988;SDS011;10653;47.052;15.410;2022-10-16T13:30:18;16.40;;;15.00;;
20988;SDS011;10653;47.052;15.410;2022-10-16T13:32:49;17.73;;;16.23;;
20988;SDS011;10653;47.052;15.410;2022-10-16T13:35:24;17.80;;;16.33;;
20988;SDS011;10653;47.052;15.410;2022-10-16T13:37:50;15.57;;;14.27;;
20988;SDS011;10653;47.052;15.410;2022-10-16T13:40:23;16.33;;;14.73;;
20988;SDS011;10653;47.052;15.410;2022-10-16T13:42:50;16.00;;;14.67;;
20988;SDS011;10653;47.052;15.410;2022-10-16T13:45:17;15.47;;;14.17;;
20988;SDS011;10653;47.052;15.410;2022-10-16T13:47:43;16.33;;;14.97;;
20988;SDS011;10653;47.052;15.410;2022-10-16T13:50:11;16.40;;;15.00;;
20988;SDS011;10653;47.052;15.410;2022-10-16T13:52:38;15.67;;;14.33;;
20988;SDS011;10653;47.052;15.410;2022-10-16T13:55:09;16.70;;;15.30;;
20988;SDS011;10653;47.052;15.410;2022-10-16T13:57:36;16.00;;;14.50;;
20988;SDS011;10653;47.052;15.410;2022-10-16T14:00:02;17.50;;;15.90;;
20988;SDS011;10653;47.052;15.410;2022-10-16T14:02:32;18.23;;;16.63;;
20988;SDS011;10653;47.052;15.410;2022-10-16T14:05:00;22.23;;;20.33;;
20988;SDS011;10653;47.052;15.410;2022-10-16T14:07:27;17.40;;;15.97;;
20988;SDS011;10653;47.052;15.410;2022-10-16T14:09:54;17.43;;;15.93;;
20988;SDS011;10653;47.052;15.410;2022-10-16T14:12:21;18.27;;;16.67;;
20988;SDS011;10653;47.052;15.410;2022-10-16T14:14:48;19.47;;;17.47;;
20988;SDS011;10653;47.052;15.410;2022-10-16T14:17:15;18.40;;;16.80;;
20988;SDS011;10653;47.052;15.410;2022-10-16T14:19:47;18.17;;;16.47;;
20988;SDS011;10653;47.052;15.410;2022-10-16T14:24:58;19.37;;;17.57;;
20988;SDS011;10653;47.052;15.410;2022-10-16T14:27:34;19.40;;;17.63;;
20988;SDS011;10653;47.052;15.410;2022-10-16T14:32:52;23.40;;;21.30;;
20988;SDS011;10653;47.052;15.410;2022-10-16T14:35:25;21.43;;;19.13;;
20988;SDS011;10653;47.052;15.410;2022-10-16T14:37:55;18.60;;;16.60;;
20988;SDS011;10653;47.052;15.410;2022-10-16T14:40:23;18.87;;;17.17;;
20988;SDS011;10653;47.052;15.410;2022-10-16T14:42:49;19.40;;;17.50;;
20988;SDS011;10653;47.052;15.410;2022-10-16T14:45:19;17.90;;;16.07;;
20988;SDS011;10653;47.052;15.410;2022-10-16T14:47:47;19.53;;;17.53;;
20988;SDS011;10653;47.052;15.410;2022-10-16T14:50:14;21.23;;;19.07;;
20988;SDS011;10653;47.052;15.410;2022-10-16T14:52:40;22.40;;;20.00;;
20988;SDS011;10653;47.052;15.410;2022-10-16T14:55:08;22.50;;;20.17;;
20988;SDS011;10653;47.052;15.410;2022-10-16T14:57:35;27.10;;;21.77;;
20988;SDS011;10653;47.052;15.410;2022-10-16T15:00:02;21.40;;;19.13;;
20988;SDS011;10653;47.052;15.410;2022-10-16T15:02:29;25.17;;;22.30;;
20988;SDS011;10653;47.052;15.410;2022-10-16T15:04:56;22.53;;;20.23;;
20988;SDS011;10653;47.052;15.410;2022-10-16T15:07:22;23.27;;;20.97;;
20988;SDS011;10653;47.052;15.410;2022-10-16T15:09:48;23.40;;;20.37;;
20988;SDS011;10653;47.052;15.410;2022-10-16T15:12:15;25.70;;;21.70;;
20988;SDS011;10653;47.052;15.410;2022-10-16T15:14:41;23.67;;;21.27;;
20988;SDS011;10653;47.052;15.410;2022-10-16T15:17:10;25.03;;;21.67;;
20988;SDS011;10653;47.052;15.410;2022-10-16T15:19:37;22.07;;;19.87;;
20988;SDS011;10653;47.052;15.410;2022-10-16T15:22:03;26.00;;;23.40;;
20988;SDS011;10653;47.052;15.410;2022-10-16T15:24:29;25.53;;;22.93;;
20988;SDS011;10653;47.052;15.410;2022-10-16T15:26:55;24.40;;;21.80;;
20988;SDS011;10653;47.052;15.410;2022-10-16T15:29:21;28.87;;;22.63;;
20988;SDS011;10653;47.052;15.410;2022-10-16T15:31:47;25.47;;;22.07;;
20988;SDS011;10653;47.052;15.410;2022-10-16T15:34:13;23.80;;;21.33;;
20988;SDS011;10653;47.052;15.410;2022-10-16T15:36:40;24.70;;;22.00;;
20988;SDS011;10653;47.052;15.410;2022-10-16T15:39:15;25.07;;;21.13;;
20988;SDS011;10653;47.052;15.410;2022-10-16T15:41:42;24.67;;;21.03;;
20988;SDS011;10653;47.052;15.410;2022-10-16T15:44:09;24.63;;;21.97;;
20988;SDS011;10653;47.052;15.410;2022-10-16T15:46:35;24.47;;;21.80;;
20988;SDS011;10653;47.052;15.410;2022-10-16T15:49:02;28.87;;;24.77;;
20988;SDS011;10653;47.052;15.410;2022-10-16T15:51:28;31.73;;;24.60;;
20988;SDS011;10653;47.052;15.410;2022-10-16T15:53:58;35.60;;;28.50;;
20988;SDS011;10653;47.052;15.410;2022-10-16T15:56:26;39.00;;;28.37;;
20988;SDS011;10653;47.052;15.410;2022-10-16T15:58:53;28.60;;;23.27;;
20988;SDS011;10653;47.052;15.410;2022-10-16T16:01:20;27.93;;;24.47;;
20988;SDS011;10653;47.052;15.410;2022-10-16T16:03:46;24.63;;;21.90;;